createdAt,value
2023-01-23T00:07:31.261Z,1.46
2023-01-23T00:22:33.181Z,1.44
2023-01-23T00:37:35.195Z,1.49
2023-01-23T00:52:37.155Z,1.49
2023-01-23T01:07:39.101Z,1.53
2023-01-23T01:22:41.062Z,1.53
2023-01-23T01:37:43.047Z,1.47
2023-01-23T01:52:45.045Z,1.43
2023-01-23T02:07:55.380Z,1.42
2023-01-23T02:23:15.596Z,1.46
2023-01-23T02:38:18.479Z,1.43
2023-01-23T02:53:20.448Z,1.36
2023-01-23T03:08:22.333Z,1.32
2023-01-23T03:23:24.208Z,1.31
2023-01-23T03:38:26.094Z,1.35
2023-01-23T03:53:28.111Z,1.21
2023-01-23T04:08:30.076Z,1.22
2023-01-23T04:23:32.098Z,1.25
2023-01-23T04:38:34.383Z,1.29
2023-01-23T04:53:36.372Z,1.28
2023-01-23T05:08:38.274Z,1.21
2023-01-23T05:23:40.192Z,1.25
2023-01-23T05:38:42.054Z,1.19
2023-01-23T05:53:44.159Z,1.18
2023-01-23T06:08:46.074Z,1.13
2023-01-23T06:23:48.093Z,1.19
2023-01-23T06:38:50.455Z,1.28
2023-01-23T06:53:52.537Z,1.29
2023-01-23T07:08:54.387Z,1.32
2023-01-23T07:23:56.492Z,1.42
2023-01-23T07:38:59.327Z,1.43
2023-01-23T07:54:01.377Z,1.44
2023-01-23T08:09:03.307Z,1.52
2023-01-23T08:24:05.801Z,1.59
2023-01-23T08:39:07.853Z,1.66
2023-01-23T08:54:09.747Z,1.67
2023-01-23T09:09:11.742Z,1.74
2023-01-23T09:24:13.656Z,1.84
2023-01-23T09:39:15.609Z,1.95
2023-01-23T09:54:21.292Z,1.88
2023-01-23T10:09:39.890Z,1.90
2023-01-23T10:24:41.869Z,1.98
2023-01-23T10:40:38.890Z,1.94
2023-01-23T10:55:45.870Z,2.01
2023-01-23T11:10:47.852Z,2.09
2023-01-23T11:25:52.133Z,2.09
2023-01-23T11:40:54.510Z,2.05
2023-01-23T11:55:58.992Z,1.99
2023-01-23T12:11:14.428Z,2.09
2023-01-23T12:26:24.818Z,2.15
2023-01-23T12:41:38.045Z,2.13
2023-01-23T12:56:42.092Z,2.12
2023-01-23T13:11:50.756Z,2.09
2023-01-23T13:26:52.735Z,2.05
2023-01-23T13:42:15.579Z,1.97
2023-01-23T14:28:05.869Z,1.90
2023-01-23T14:43:08.865Z,1.82
2023-01-23T14:58:18.879Z,1.84
2023-01-23T15:13:24.710Z,1.84
2023-01-23T15:28:32.092Z,1.74
2023-01-23T15:43:34.012Z,1.74
2023-01-23T15:58:35.961Z,1.68
2023-01-23T16:13:37.826Z,1.75
2023-01-23T16:28:39.854Z,1.74
2023-01-23T16:43:41.757Z,1.87
2023-01-23T16:58:43.717Z,1.78
2023-01-23T17:13:45.959Z,1.75
2023-01-23T17:28:48.022Z,1.74
2023-01-23T17:43:51.676Z,1.80
2023-01-23T17:58:53.735Z,1.75
2023-01-23T18:14:21.640Z,1.80
2023-01-23T18:29:41.741Z,1.85
2023-01-23T18:45:11.221Z,1.84
2023-01-23T19:00:28.425Z,1.84
2023-01-23T19:15:47.184Z,1.77
2023-01-23T19:30:49.569Z,1.82
2023-01-23T19:45:51.579Z,1.80
2023-01-23T20:00:53.913Z,1.80
2023-01-23T20:15:56.044Z,1.80
2023-01-23T20:31:03.132Z,1.77
2023-01-23T20:46:07.359Z,1.78
2023-01-23T21:01:10.054Z,1.80
2023-01-23T21:16:15.952Z,1.90
2023-01-23T21:31:22.187Z,1.85
2023-01-23T21:46:24.314Z,1.91
2023-01-23T22:01:33.067Z,1.90
2023-01-23T22:16:48.038Z,1.92
2023-01-23T22:31:52.499Z,1.92
2023-01-23T22:46:54.588Z,1.88
2023-01-23T23:01:56.571Z,1.88
2023-01-23T23:16:58.803Z,1.88
2023-01-23T23:32:00.826Z,1.85
2023-01-23T23:47:02.888Z,1.91
